Time;durP1;ratioP1;P1;durP2;ratioP2;P2;SDS_P1;SDS_P2;PMS_P1;PMS_P2;Temp;Humidity;BMP_temperature;BMP_pressure;BME280_temperature;BME280_humidity;BME280_pressure;Samples;Min_cycle;Max_cycle;Signal;HPM_P1;HPM_P2
2021/12/01 00:01:14;;;;;;;12.30;7.40;;;;;;;1.47;94.54;96237.52;103972;1345;22333;-64
2021/12/01 00:03:47;;;;;;;13.00;8.40;;;;;;;1.49;94.49;96237.39;103865;1351;137467;-58
2021/12/01 00:06:37;;;;;;;11.00;7.30;;;;;;;1.50;94.31;96239.86;103952;1351;22309;-57
2021/12/01 00:09:06;;;;;;;11.00;7.30;;;;;;;1.52;94.45;96244.30;103962;1352;23570;-61
2021/12/01 00:11:34;;;;;;;13.10;7.30;;;;;;;1.52;94.32;96253.11;103972;1352;22407;-59
2021/12/01 00:14:02;;;;;;;12.70;6.70;;;;;;;1.52;94.53;96281.09;103983;1352;22569;-58
2021/12/01 00:16:31;;;;;;;12.10;7.70;;;;;;;1.55;94.51;96263.34;103938;1352;23590;-59
2021/12/01 00:18:59;;;;;;;11.00;7.80;;;;;;;1.56;94.21;96270.13;103949;1352;22444;-59
2021/12/01 00:21:27;;;;;;;12.40;7.00;;;;;;;1.56;94.27;96276.93;103966;1352;22581;-59
2021/12/01 00:23:55;;;;;;;11.20;6.80;;;;;;;1.53;94.25;96287.35;103960;1352;23105;-61
2021/12/01 00:26:24;;;;;;;11.40;7.40;;;;;;;1.51;94.29;96283.23;103962;1343;22377;-60
2021/12/01 00:28:52;;;;;;;10.10;6.80;;;;;;;1.51;94.26;96284.92;103982;1351;22541;-59
2021/12/01 00:31:21;;;;;;;11.00;6.50;;;;;;;1.49;94.26;96299.60;103972;1349;23262;-59
2021/12/01 00:33:49;;;;;;;14.10;7.80;;;;;;;1.45;94.18;96300.70;103862;1351;137950;-59
2021/12/01 00:36:18;;;;;;;10.30;6.70;;;;;;;1.44;94.44;96306.35;103942;1345;22562;-59
2021/12/01 00:38:46;;;;;;;10.50;7.00;;;;;;;1.46;94.16;96306.96;103922;1347;22276;-60
2021/12/01 00:41:15;;;;;;;13.90;7.90;;;;;;;1.45;94.33;96314.51;103852;1351;22579;-59
2021/12/01 00:43:43;;;;;;;12.20;6.60;;;;;;;1.44;94.29;96315.48;103994;1344;22471;-59
2021/12/01 00:46:20;;;;;;;13.50;8.00;;;;;;;1.45;94.41;96330.42;103927;1349;23053;-59
2021/12/01 00:48:52;;;;;;;12.40;7.40;;;;;;;1.47;94.41;96325.21;103949;1351;22326;-59
2021/12/01 00:51:22;;;;;;;11.70;7.70;;;;;;;1.52;94.27;96342.05;103949;1351;22294;-59
2021/12/01 00:53:51;;;;;;;14.80;7.10;;;;;;;1.54;94.48;96336.81;103972;1348;22331;-59
2021/12/01 00:56:20;;;;;;;14.00;7.30;;;;;;;1.56;94.38;96343.45;103996;1351;23190;-59
2021/12/01 00:58:51;;;;;;;12.10;6.90;;;;;;;1.59;94.11;96343.11;103982;1351;23039;-58
2021/12/01 01:01:19;;;;;;;14.10;8.00;;;;;;;1.62;94.15;96349.14;103982;1348;22557;-59
2021/12/01 01:03:49;;;;;;;13.60;8.30;;;;;;;1.63;94.10;96371.05;103854;1345;138364;-59
2021/12/01 01:06:17;;;;;;;15.30;8.10;;;;;;;1.63;94.01;96356.13;103971;1344;22945;-60
2021/12/01 01:08:47;;;;;;;11.20;6.40;;;;;;;1.65;94.20;96373.54;103921;1344;22426;-60
2021/12/01 01:16:51;;;;;;;11.20;7.30;;;;;;;1.63;94.25;96379.11;103934;1351;22552;-60
2021/12/01 01:19:20;;;;;;;15.20;8.60;;;;;;;1.64;94.11;96377.72;103983;1351;23263;-60
2021/12/01 01:21:51;;;;;;;14.30;7.70;;;;;;;1.67;93.94;96381.32;103974;1351;22386;-59
2021/12/01 01:24:20;;;;;;;15.40;8.40;;;;;;;1.68;93.94;96394.38;103982;1351;22477;-60
2021/12/01 01:26:49;;;;;;;14.00;7.30;;;;;;;1.68;93.82;96399.70;103992;1350;22676;-59
2021/12/01 01:29:21;;;;;;;10.50;7.40;;;;;;;1.71;93.85;96403.80;103984;1351;22406;-60
2021/12/01 01:31:55;;;;;;;12.10;7.80;;;;;;;1.74;93.78;96409.98;103999;1351;22919;-59
2021/12/01 01:34:25;;;;;;;12.30;7.60;;;;;;;1.75;93.91;96419.80;103911;1351;22531;-60
2021/12/01 01:36:54;;;;;;;13.00;7.60;;;;;;;1.76;93.93;96419.38;103990;1351;22526;-59
2021/12/01 01:39:22;;;;;;;14.80;8.30;;;;;;;1.78;93.62;96430.14;104007;1351;22413;-60
2021/12/01 01:41:52;;;;;;;12.20;7.00;;;;;;;1.79;93.76;96438.02;104006;1351;23112;-60
2021/12/01 01:44:21;;;;;;;13.80;7.50;;;;;;;1.78;93.73;96436.19;104013;1350;22261;-59
2021/12/01 01:46:49;;;;;;;10.00;6.60;;;;;;;1.80;93.73;96440.70;104010;1351;22431;-60
2021/12/01 01:49:19;;;;;;;13.50;7.30;;;;;;;1.80;93.65;96441.02;103956;1351;22400;-58
2021/12/01 01:51:48;;;;;;;13.00;6.80;;;;;;;1.80;93.43;96446.55;104007;1351;22930;-59
2021/12/01 01:54:17;;;;;;;12.60;6.80;;;;;;;1.78;93.34;96453.67;103996;1351;23112;-59
2021/12/01 01:56:45;;;;;;;13.80;7.30;;;;;;;1.77;93.54;96467.77;103992;1351;22289;-59
2021/12/01 01:59:13;;;;;;;11.80;6.90;;;;;;;1.79;93.34;96457.55;104005;1351;22956;-59
2021/12/01 02:01:44;;;;;;;11.80;7.30;;;;;;;1.80;93.28;96476.98;104004;1351;22321;-59
2021/12/01 02:04:18;;;;;;;15.20;8.10;;;;;;;1.77;93.49;96483.38;103950;1351;22333;-58
2021/12/01 02:06:48;;;;;;;11.40;7.20;;;;;;;1.77;93.45;96475.62;103995;1351;22205;-59
2021/12/01 02:09:20;;;;;;;12.40;7.30;;;;;;;1.77;93.36;96483.11;103976;1351;22966;-59
2021/12/01 02:11:51;;;;;;;10.60;7.10;;;;;;;1.73;92.93;96491.58;104006;1351;22308;-60
2021/12/01 02:14:19;;;;;;;10.10;6.70;;;;;;;1.64;93.03;96499.92;104007;1351;23153;-59
2021/12/01 02:16:47;;;;;;;12.60;6.30;;;;;;;1.56;92.95;96500.88;104017;1351;22374;-60
2021/12/01 02:19:16;;;;;;;11.80;6.00;;;;;;;1.52;93.02;96518.90;104000;1351;22425;-60
2021/12/01 02:21:44;;;;;;;8.00;5.20;;;;;;;1.47;92.86;96523.23;103991;1351;23034;-60
2021/12/01 02:24:14;;;;;;;8.40;5.20;;;;;;;1.42;93.10;96522.41;103668;1351;468481;-60
2021/12/01 02:26:49;;;;;;;8.50;6.10;;;;;;;1.40;93.31;96529.95;103989;1351;22343;-59
2021/12/01 02:29:28;;;;;;;11.10;6.20;;;;;;;1.39;93.35;96533.99;104004;1351;23270;-60
2021/12/01 02:31:57;;;;;;;12.80;6.00;;;;;;;1.39;93.33;96545.03;103947;1351;23072;-60
2021/12/01 02:34:25;;;;;;;9.00;5.40;;;;;;;1.35;93.36;96541.80;103999;1351;22306;-60
2021/12/01 02:36:58;;;;;;;10.40;5.30;;;;;;;1.35;93.37;96542.23;104004;1351;22515;-60
2021/12/01 02:39:28;;;;;;;10.40;5.60;;;;;;;1.34;93.43;96543.40;103980;1351;22405;-60
2021/12/01 02:42:00;;;;;;;9.60;5.90;;;;;;;1.34;93.25;96546.00;103999;1351;22445;-60
2021/12/01 02:44:28;;;;;;;8.20;4.90;;;;;;;1.38;93.36;96547.25;103992;1348;22673;-60
2021/12/01 02:46:58;;;;;;;7.30;4.80;;;;;;;1.39;93.32;96549.71;104003;1351;23140;-60
2021/12/01 02:49:26;;;;;;;8.10;5.00;;;;;;;1.38;93.18;96558.46;103981;1351;22402;-60
2021/12/01 02:51:56;;;;;;;6.30;4.70;;;;;;;1.36;90.46;96566.05;103960;1351;22269;-60
2021/12/01 02:54:26;;;;;;;5.60;4.10;;;;;;;1.39;87.30;96563.13;103987;1351;22455;-59
2021/12/01 02:56:57;;;;;;;7.70;4.90;;;;;;;1.41;86.11;96573.95;103999;1351;22321;-60
2021/12/01 02:59:26;;;;;;;7.00;4.50;;;;;;;1.39;86.29;96570.83;104004;1351;22536;-60
2021/12/01 03:01:55;;;;;;;7.60;4.10;;;;;;;1.37;85.98;96573.44;103986;1351;22436;-60
2021/12/01 03:04:24;;;;;;;9.20;4.40;;;;;;;1.38;85.56;96584.69;103962;1348;22248;-59
2021/12/01 03:06:55;;;;;;;7.40;4.80;;;;;;;1.36;85.84;96588.04;104001;1351;23171;-60
2021/12/01 03:09:26;;;;;;;7.50;4.80;;;;;;;1.35;85.00;96588.77;103975;1350;22422;-61
2021/12/01 03:11:55;;;;;;;9.40;4.80;;;;;;;1.29;86.15;96589.75;104017;1351;22282;-59
2021/12/01 03:14:24;;;;;;;10.90;5.30;;;;;;;1.34;84.91;96591.05;103987;1351;23123;-60
2021/12/01 03:16:55;;;;;;;7.20;5.00;;;;;;;1.31;84.82;96597.82;104006;1351;22411;-60
2021/12/01 03:19:24;;;;;;;8.10;5.10;;;;;;;1.26;85.29;96597.72;104023;1351;22966;-60
2021/12/01 03:21:52;;;;;;;8.60;5.60;;;;;;;1.28;85.25;96608.06;103974;1351;22417;-60
2021/12/01 03:24:20;;;;;;;8.50;5.50;;;;;;;1.30;85.19;96602.81;103996;1351;22301;-60
2021/12/01 03:26:49;;;;;;;8.80;5.30;;;;;;;1.29;85.54;96618.62;103988;1351;22315;-60
2021/12/01 03:29:17;;;;;;;8.20;4.70;;;;;;;1.29;85.45;96623.34;103994;1351;22435;-60
2021/12/01 03:31:45;;;;;;;8.00;5.60;;;;;;;1.33;84.94;96622.70;104005;1351;22974;-60
2021/12/01 03:34:14;;;;;;;9.10;5.30;;;;;;;1.34;84.38;96631.36;104004;1351;23068;-60
2021/12/01 03:36:42;;;;;;;10.50;5.40;;;;;;;1.33;84.42;96644.14;103984;1351;23171;-60
2021/12/01 03:39:10;;;;;;;7.60;5.10;;;;;;;1.33;84.11;96643.88;104002;1351;22999;-60
2021/12/01 03:41:38;;;;;;;6.10;4.40;;;;;;;1.35;84.11;96651.73;103992;1351;22384;-60
2021/12/01 03:44:06;;;;;;;7.80;4.60;;;;;;;1.34;84.19;96657.20;104002;1351;22593;-59
2021/12/01 03:46:35;;;;;;;7.10;4.80;;;;;;;1.31;83.81;96666.39;103989;1351;22332;-59
2021/12/01 03:49:03;;;;;;;6.80;4.50;;;;;;;1.30;84.11;96657.67;103985;1351;22419;-59
2021/12/01 03:51:31;;;;;;;8.30;4.80;;;;;;;1.33;83.61;96660.02;103985;1351;22432;-60
2021/12/01 03:53:59;;;;;;;8.10;4.80;;;;;;;1.31;83.47;96665.75;104001;1350;22403;-60
2021/12/01 03:56:30;;;;;;;7.70;4.70;;;;;;;1.27;83.72;96662.89;103956;1351;22471;-58
2021/12/01 03:58:58;;;;;;;6.80;5.20;;;;;;;1.28;84.36;96672.29;103992;1351;22469;-60
2021/12/01 04:01:26;;;;;;;7.30;5.20;;;;;;;1.28;84.00;96663.42;103985;1351;22350;-60
2021/12/01 04:03:55;;;;;;;7.10;5.10;;;;;;;1.28;83.72;96667.77;103998;1351;23621;-60
2021/12/01 04:06:26;;;;;;;5.90;4.40;;;;;;;1.22;84.01;96661.58;103991;1351;23026;-61
2021/12/01 04:08:56;;;;;;;7.60;5.10;;;;;;;1.23;83.88;96675.75;104008;1351;22456;-60
2021/12/01 04:11:25;;;;;;;8.30;6.00;;;;;;;1.24;83.86;96678.39;104009;1351;22400;-61
2021/12/01 04:13:56;;;;;;;8.70;5.20;;;;;;;1.23;83.77;96684.29;103987;1351;22435;-60
2021/12/01 04:16:25;;;;;;;10.40;5.80;;;;;;;1.20;83.98;96685.04;103989;1350;23187;-60
2021/12/01 04:18:54;;;;;;;9.80;6.80;;;;;;;1.19;83.88;96694.29;104006;1351;22438;-58
2021/12/01 04:21:25;;;;;;;9.20;7.00;;;;;;;1.19;83.58;96692.42;104005;1351;22345;-61
2021/12/01 04:23:55;;;;;;;7.50;5.70;;;;;;;1.18;84.05;96706.11;104003;1351;22264;-59
2021/12/01 04:26:27;;;;;;;11.00;5.30;;;;;;;1.15;84.08;96704.58;104022;1351;22541;-60
2021/12/01 04:28:56;;;;;;;8.30;5.70;;;;;;;1.13;83.90;96700.48;103985;1351;22334;-59
2021/12/01 04:31:25;;;;;;;8.90;5.80;;;;;;;1.14;83.90;96707.33;103977;1351;22393;-60
2021/12/01 04:33:56;;;;;;;9.10;5.90;;;;;;;1.13;83.75;96708.86;103994;1351;22414;-59
2021/12/01 04:36:31;;;;;;;10.00;6.70;;;;;;;1.07;83.75;96711.00;104002;1351;22388;-59
2021/12/01 04:38:59;;;;;;;;;;;;;;;1.10;83.95;96719.49;104030;1351;22663;-60
2021/12/01 04:41:30;;;;;;;7.70;5.60;;;;;;;1.08;83.95;96722.84;103978;1351;22532;-59
2021/12/01 04:44:00;;;;;;;8.20;5.50;;;;;;;1.06;83.95;96725.70;104003;1351;22547;-59
2021/12/01 04:46:29;;;;;;;8.20;5.60;;;;;;;1.02;84.08;96729.63;103996;1351;23094;-60
2021/12/01 04:48:57;;;;;;;8.40;6.10;;;;;;;1.01;84.23;96731.80;104010;1351;22662;-59
2021/12/01 04:51:25;;;;;;;8.40;6.00;;;;;;;1.03;84.28;96733.39;103994;1351;22423;-60
2021/12/01 04:53:56;;;;;;;7.10;5.70;;;;;;;1.04;84.12;96728.30;104017;1351;22331;-59
2021/12/01 04:56:25;;;;;;;8.80;5.80;;;;;;;1.00;84.18;96732.16;103995;1351;22323;-60
2021/12/01 04:58:54;;;;;;;7.10;5.30;;;;;;;0.98;84.38;96725.38;104008;1349;22255;-60
2021/12/01 05:01:22;;;;;;;8.40;5.90;;;;;;;1.00;84.42;96729.73;104016;1351;22333;-59
2021/12/01 05:03:50;;;;;;;9.90;5.80;;;;;;;1.00;84.28;96725.64;104011;1351;22908;-60
2021/12/01 05:06:19;;;;;;;7.40;5.30;;;;;;;0.96;84.16;96730.52;103971;1351;22500;-60
2021/12/01 05:08:47;;;;;;;7.10;5.10;;;;;;;0.97;84.31;96722.46;103991;1351;22415;-59
2021/12/01 05:11:15;;;;;;;8.80;6.30;;;;;;;0.99;84.09;96730.16;103990;1351;23177;-60
2021/12/01 05:14:04;;;;;;;10.10;6.40;;;;;;;0.96;84.22;96726.29;103999;1351;23426;-58
2021/12/01 05:16:32;;;;;;;7.70;6.20;;;;;;;0.96;84.17;96727.17;103990;1351;22312;-59
2021/12/01 05:19:01;;;;;;;7.50;6.00;;;;;;;0.99;84.04;96744.48;103983;1351;22356;-57
2021/12/01 05:21:29;;;;;;;7.90;6.10;;;;;;;0.99;84.11;96741.13;104005;1348;22661;-59
2021/12/01 05:23:57;;;;;;;9.10;7.00;;;;;;;1.00;84.10;96739.61;104012;1351;22571;-58
2021/12/01 05:26:27;;;;;;;9.70;6.40;;;;;;;0.97;84.20;96744.42;103997;1351;23050;-59
2021/12/01 05:28:55;;;;;;;11.00;6.90;;;;;;;0.99;84.28;96738.85;104005;1351;22462;-59
2021/12/01 05:31:24;;;;;;;12.60;5.60;;;;;;;1.00;84.17;96737.48;103906;1343;138042;-59
2021/12/01 05:33:54;;;;;;;9.70;5.70;;;;;;;0.97;84.09;96736.52;104010;1350;22457;-60
2021/12/01 05:36:22;;;;;;;8.00;5.50;;;;;;;0.96;84.39;96732.02;103974;1344;22316;-60
2021/12/01 05:38:50;;;;;;;10.50;6.10;;;;;;;0.98;84.63;96735.89;103977;1345;22483;-59
2021/12/01 05:41:19;;;;;;;9.70;6.70;;;;;;;0.99;84.40;96739.65;103987;1344;22423;-62
2021/12/01 05:43:47;;;;;;;9.00;6.70;;;;;;;0.96;84.44;96742.98;103974;1351;22698;-60
2021/12/01 05:46:15;;;;;;;9.50;6.40;;;;;;;0.95;84.55;96742.83;103917;1351;22417;-59
2021/12/01 05:48:44;;;;;;;8.20;5.40;;;;;;;0.95;84.78;96746.23;103905;1351;22423;-60
2021/12/01 05:51:12;;;;;;;8.60;6.00;;;;;;;0.96;84.86;96740.86;103948;1351;22306;-61
2021/12/01 05:53:40;;;;;;;8.00;6.00;;;;;;;0.94;84.75;96739.07;103983;1352;22910;-60
2021/12/01 05:56:16;;;;;;;8.50;6.50;;;;;;;0.91;84.83;96735.09;103965;1352;22322;-60
2021/12/01 05:58:59;;;;;;;8.80;6.50;;;;;;;0.91;84.98;96736.89;103944;1352;23804;-61
2021/12/01 06:01:33;;;;;;;8.90;6.80;;;;;;;0.88;85.30;96738.22;103946;1352;23176;-61
2021/12/01 06:04:06;;;;;;;8.50;6.90;;;;;;;0.86;85.11;96742.20;103970;1352;23159;-60
2021/12/01 06:06:40;;;;;;;8.10;6.20;;;;;;;0.84;85.41;96741.09;103949;1352;22356;-59
2021/12/01 06:09:14;;;;;;;10.50;7.20;;;;;;;0.81;85.52;96745.27;103972;1347;22972;-60
2021/12/01 06:11:42;;;;;;;8.80;6.80;;;;;;;0.81;85.56;96744.30;103960;1351;23349;-59
2021/12/01 06:14:16;;;;;;;9.00;7.40;;;;;;;0.81;85.39;96749.77;103936;1351;22356;-60
2021/12/01 06:16:46;;;;;;;11.70;6.80;;;;;;;0.79;85.47;96748.13;103918;1352;23203;-60
2021/12/01 06:19:14;;;;;;;9.90;6.60;;;;;;;0.77;85.64;96746.74;103979;1352;22341;-60
2021/12/01 06:21:43;;;;;;;9.60;7.50;;;;;;;0.76;85.56;96743.51;103986;1352;22441;-61
2021/12/01 06:24:17;;;;;;;9.40;7.00;;;;;;;0.73;85.71;96739.42;103808;1354;137636;-61
2021/12/01 06:26:50;;;;;;;9.10;7.50;;;;;;;0.70;85.61;96747.38;103899;1354;22300;-61
2021/12/01 06:29:23;;;;;;;10.40;7.70;;;;;;;0.70;85.65;96750.02;103966;1348;22301;-58
2021/12/01 06:31:57;;;;;;;11.30;7.20;;;;;;;0.71;85.70;96757.49;103959;1352;22512;-59
2021/12/01 06:34:31;;;;;;;11.30;8.90;;;;;;;0.72;85.66;96755.65;103975;1352;22419;-60
2021/12/01 06:37:04;;;;;;;10.80;8.70;;;;;;;0.70;85.74;96752.14;103969;1352;22422;-59
2021/12/01 06:39:33;;;;;;;11.60;8.80;;;;;;;0.72;85.60;96754.86;103952;1351;22498;-59
2021/12/01 06:42:06;;;;;;;10.30;8.30;;;;;;;0.75;85.67;96759.80;103977;1351;23043;-59
2021/12/01 06:44:38;;;;;;;13.00;9.40;;;;;;;0.77;85.70;96752.31;103961;1352;22348;-59
2021/12/01 06:47:08;;;;;;;14.10;10.10;;;;;;;0.77;85.68;96757.47;103925;1351;22622;-59
2021/12/01 06:49:45;;;;;;;11.70;9.40;;;;;;;0.78;85.70;96755.39;103916;1353;23010;-58
2021/12/01 06:52:17;;;;;;;14.00;9.00;;;;;;;0.82;85.76;96751.36;103918;1353;22292;-59
2021/12/01 06:54:50;;;;;;;14.00;10.70;;;;;;;0.87;85.92;96758.58;103915;1353;22291;-58
2021/12/01 06:57:24;;;;;;;11.40;9.60;;;;;;;0.89;85.89;96764.42;103882;1353;22438;-58
2021/12/01 06:59:58;;;;;;;18.60;13.30;;;;;;;0.91;85.78;96762.88;103915;1353;22303;-59
2021/12/01 07:02:32;;;;;;;12.30;10.50;;;;;;;0.94;85.80;96755.55;103895;1353;23041;-60
2021/12/01 07:05:07;;;;;;;15.10;13.20;;;;;;;0.98;85.98;96746.55;103918;1352;22388;-60
2021/12/01 07:07:39;;;;;;;19.20;17.20;;;;;;;0.99;85.70;96747.08;103919;1354;22485;-59
2021/12/01 07:10:12;;;;;;;21.10;16.40;;;;;;;0.99;85.69;96749.36;103937;1354;22414;-60
2021/12/01 07:12:42;;;;;;;16.30;12.00;;;;;;;1.00;85.50;96742.94;103944;1353;22409;-59
2021/12/01 07:15:11;;;;;;;22.60;14.90;;;;;;;1.01;85.46;96738.48;103928;1354;23261;-59
2021/12/01 07:17:41;;;;;;;17.30;12.70;;;;;;;1.02;85.31;96739.06;103926;1354;22452;-59
2021/12/01 07:20:10;;;;;;;22.70;16.30;;;;;;;1.02;85.42;96737.27;103932;1352;22497;-60
2021/12/01 07:22:38;;;;;;;18.80;15.50;;;;;;;1.04;85.44;96733.34;103940;1353;22488;-60
2021/12/01 07:25:06;;;;;;;37.40;20.80;;;;;;;1.10;85.24;96731.37;103927;1354;23224;-60
2021/12/01 07:27:37;;;;;;;29.50;20.70;;;;;;;1.16;85.47;96729.79;103943;1354;22381;-60
2021/12/01 07:30:17;;;;;;;29.10;26.00;;;;;;;1.19;85.18;96729.77;103868;1354;22449;-60
2021/12/01 07:32:45;;;;;;;25.50;21.00;;;;;;;1.21;84.88;96735.40;103915;1354;22388;-60
2021/12/01 07:35:13;;;;;;;21.10;18.10;;;;;;;1.23;84.79;96729.40;103895;1354;23069;-60
2021/12/01 07:37:42;;;;;;;26.20;23.00;;;;;;;1.28;84.97;96719.80;103921;1352;23179;-60
2021/12/01 07:40:11;;;;;;;26.90;23.00;;;;;;;1.34;85.03;96720.95;103857;1354;22441;-60
2021/12/01 07:42:39;;;;;;;25.30;17.70;;;;;;;1.41;85.06;96716.16;103923;1352;22353;-60
2021/12/01 07:45:08;;;;;;;23.90;21.20;;;;;;;1.48;85.20;96708.45;103913;1353;22438;-60
2021/12/01 07:47:36;;;;;;;22.50;19.20;;;;;;;1.56;84.73;96700.30;103922;1354;22533;-60
2021/12/01 07:50:05;;;;;;;26.50;23.80;;;;;;;1.59;84.50;96694.83;103682;1353;22417;-60
2021/12/01 07:52:35;;;;;;;33.10;27.40;;;;;;;1.59;84.83;96691.48;103910;1352;22396;-59
2021/12/01 07:55:04;;;;;;;24.50;21.80;;;;;;;1.61;84.49;96688.34;103947;1348;23142;-60
2021/12/01 07:57:33;;;;;;;26.50;23.70;;;;;;;1.63;84.28;96686.59;103946;1351;23170;-60
2021/12/01 08:00:01;;;;;;;24.00;21.20;;;;;;;1.65;84.59;96684.66;103956;1351;23145;-60
2021/12/01 08:02:32;;;;;;;24.90;22.30;;;;;;;1.69;84.12;96681.14;103948;1351;22384;-60
2021/12/01 08:05:00;;;;;;;28.00;25.00;;;;;;;1.67;84.14;96664.38;103962;1352;22743;-60
2021/12/01 08:07:29;;;;;;;45.00;40.40;;;;;;;1.66;83.60;96665.97;103927;1351;22432;-60
2021/12/01 08:09:57;;;;;;;39.50;35.30;;;;;;;1.65;84.07;96657.80;103912;1353;22527;-59
2021/12/01 08:12:25;;;;;;;122.00;99.60;;;;;;;1.69;84.30;96654.44;103956;1352;22408;-60
2021/12/01 08:14:54;;;;;;;67.30;61.10;;;;;;;1.69;84.07;96653.16;103969;1352;22417;-60
2021/12/01 08:17:22;;;;;;;35.10;31.60;;;;;;;1.68;84.26;96648.92;103965;1352;22429;-59
2021/12/01 08:19:50;;;;;;;38.80;35.20;;;;;;;1.68;83.90;96645.46;103946;1352;22419;-59
2021/12/01 08:22:19;;;;;;;46.40;42.00;;;;;;;1.69;84.08;96644.93;103963;1352;23088;-59
2021/12/01 08:24:48;;;;;;;48.70;44.40;;;;;;;1.71;84.00;96639.50;103957;1352;23306;-59
2021/12/01 08:27:16;;;;;;;48.70;43.50;;;;;;;1.72;83.70;96642.15;103953;1351;22447;-60
2021/12/01 08:29:44;;;;;;;32.00;28.80;;;;;;;1.72;83.62;96644.48;103965;1352;22427;-60
2021/12/01 08:32:12;;;;;;;43.40;39.00;;;;;;;1.76;84.15;96647.70;103970;1352;22333;-60
2021/12/01 08:34:40;;;;;;;25.10;22.50;;;;;;;1.87;83.95;96655.16;103963;1352;23138;-59
2021/12/01 08:37:10;;;;;;;31.00;28.00;;;;;;;1.96;83.83;96657.92;103937;1353;22293;-59
2021/12/01 08:39:38;;;;;;;31.70;28.50;;;;;;;2.00;83.84;96651.58;104001;1352;22480;-60
2021/12/01 08:42:08;;;;;;;30.00;27.00;;;;;;;1.98;83.26;96649.89;103987;1351;22564;-59
2021/12/01 08:44:36;;;;;;;23.50;19.00;;;;;;;1.94;83.74;96643.48;103978;1352;22344;-60
2021/12/01 08:47:04;;;;;;;24.00;20.20;;;;;;;1.93;83.29;96639.61;103995;1351;22456;-59
2021/12/01 08:49:32;;;;;;;21.40;19.10;;;;;;;1.93;83.65;96640.25;103964;1346;22411;-60
2021/12/01 08:52:00;;;;;;;37.50;31.00;;;;;;;1.99;83.55;96641.80;103971;1352;23171;-59
2021/12/01 08:54:28;;;;;;;22.00;19.40;;;;;;;2.00;83.24;96640.20;103954;1352;23256;-59
2021/12/01 08:56:57;;;;;;;21.70;19.30;;;;;;;1.99;82.97;96638.92;103968;1351;22423;-59
2021/12/01 08:59:25;;;;;;;23.60;18.60;;;;;;;2.02;83.41;96634.88;103970;1351;22393;-59
2021/12/01 09:01:54;;;;;;;23.30;17.70;;;;;;;2.12;83.33;96633.75;103951;1352;22319;-59
2021/12/01 09:04:22;;;;;;;23.20;20.40;;;;;;;2.20;83.20;96626.61;103970;1351;22678;-59
2021/12/01 09:06:50;;;;;;;28.30;25.30;;;;;;;2.29;83.29;96624.30;103935;1352;22350;-59
2021/12/01 09:09:19;;;;;;;31.50;27.40;;;;;;;2.35;82.72;96623.03;103991;1352;22431;-59
2021/12/01 09:11:49;;;;;;;45.80;41.00;;;;;;;2.40;82.20;96621.56;103943;1352;22372;-59
2021/12/01 09:14:19;;;;;;;48.40;39.30;;;;;;;2.46;82.41;96615.46;103934;1352;23193;-60
2021/12/01 09:16:47;;;;;;;40.10;34.80;;;;;;;2.58;81.56;96619.15;103958;1352;22418;-60
2021/12/01 09:19:16;;;;;;;20.50;16.70;;;;;;;2.67;81.67;96618.42;103854;1352;22311;-59
2021/12/01 09:21:44;;;;;;;20.80;16.60;;;;;;;2.72;80.61;96620.77;103839;1354;22721;-60
2021/12/01 09:24:14;;;;;;;46.70;41.10;;;;;;;2.72;80.86;96612.42;103958;1352;22335;-59
2021/12/01 09:26:43;;;;;;;79.50;61.20;;;;;;;2.75;80.74;96604.96;103975;1352;22335;-60
2021/12/01 09:29:11;;;;;;;32.50;26.40;;;;;;;2.85;81.05;96596.57;103959;1352;22294;-59
2021/12/01 09:31:40;;;;;;;49.70;43.80;;;;;;;3.00;81.01;96592.52;103874;1352;22456;-59
2021/12/01 09:34:08;;;;;;;40.60;36.40;;;;;;;3.16;79.96;96590.71;103985;1352;23200;-60
2021/12/01 09:36:37;;;;;;;70.70;58.60;;;;;;;3.32;79.60;96583.58;103981;1352;23125;-60
2021/12/01 09:39:05;;;;;;;45.90;37.10;;;;;;;3.42;78.93;96579.02;103986;1351;22490;-60
2021/12/01 09:41:33;;;;;;;20.00;14.40;;;;;;;3.45;79.49;96574.41;103908;1352;22318;-59
2021/12/01 09:44:02;;;;;;;19.60;14.20;;;;;;;3.50;79.67;96567.70;103964;1352;22988;-59
2021/12/01 09:46:31;;;;;;;18.30;13.00;;;;;;;3.57;79.76;96561.00;103935;1352;22452;-59
2021/12/01 09:48:59;;;;;;;21.00;12.80;;;;;;;3.66;78.47;96556.73;103972;1352;22700;-60
2021/12/01 09:51:28;;;;;;;16.60;13.00;;;;;;;3.66;76.91;96563.02;103967;1348;23001;-60
2021/12/01 09:53:57;;;;;;;21.90;13.90;;;;;;;3.62;78.09;96562.86;103963;1352;22387;-60
2021/12/01 09:56:29;;;;;;;19.20;14.60;;;;;;;3.68;77.88;96563.70;103972;1352;22710;-60
2021/12/01 09:58:58;;;;;;;19.90;14.50;;;;;;;3.77;77.72;96560.74;103969;1352;22548;-61
2021/12/01 10:01:27;;;;;;;20.60;15.80;;;;;;;3.89;77.65;96561.38;103964;1352;22786;-60
2021/12/01 10:03:58;;;;;;;16.80;12.70;;;;;;;4.00;77.48;96566.88;103978;1351;23569;-60
2021/12/01 10:06:28;;;;;;;17.10;12.70;;;;;;;4.11;76.49;96561.81;103907;1354;22548;-62
2021/12/01 10:09:04;;;;;;;18.10;13.80;;;;;;;4.18;76.65;96557.35;103927;1354;22401;-62
2021/12/01 10:11:33;;;;;;;19.10;13.50;;;;;;;4.20;74.96;96551.71;103959;1352;22404;-60
2021/12/01 10:14:22;;;;;;;21.60;15.40;;;;;;;4.16;75.48;96547.08;103958;1352;22488;-59
2021/12/01 10:16:53;;;;;;;19.50;14.60;;;;;;;4.09;75.73;96542.80;103978;1352;22309;-59
2021/12/01 10:19:25;;;;;;;23.00;14.90;;;;;;;4.05;76.07;96535.73;103973;1352;22310;-60
2021/12/01 10:21:55;;;;;;;23.90;15.70;;;;;;;4.02;75.57;96534.29;103768;1352;23073;-60
2021/12/01 10:24:27;;;;;;;22.10;18.00;;;;;;;4.00;75.28;96530.58;103766;1351;252432;-60
2021/12/01 10:26:58;;;;;;;24.10;15.90;;;;;;;3.94;73.31;96530.61;103970;1353;22368;-60
2021/12/01 10:29:35;;;;;;;19.70;13.90;;;;;;;3.82;73.22;96523.48;103912;1352;22425;-60
2021/12/01 10:32:07;;;;;;;28.10;17.70;;;;;;;3.76;74.99;96520.52;103946;1352;22233;-59
2021/12/01 10:34:41;;;;;;;28.20;14.80;;;;;;;3.82;74.82;96516.77;103972;1352;22291;-61
2021/12/01 10:37:26;;;;;;;26.40;15.10;;;;;;;3.89;75.22;96516.13;103975;1352;22382;-58
2021/12/01 10:40:08;;;;;;;21.60;14.90;;;;;;;3.96;75.42;96508.15;103940;1352;22276;-60
2021/12/01 10:42:59;;;;;;;21.40;13.50;;;;;;;4.00;75.06;96502.17;103902;1352;22384;-61
2021/12/01 10:45:31;;;;;;;21.80;16.10;;;;;;;4.01;75.31;96497.14;103967;1352;23628;-60
2021/12/01 10:48:01;;;;;;;19.30;13.60;;;;;;;4.01;75.39;96491.39;103858;1354;22414;-60
2021/12/01 10:50:32;;;;;;;18.10;13.00;;;;;;;4.00;74.69;96488.45;103967;1352;22983;-59
2021/12/01 10:53:07;;;;;;;21.40;13.70;;;;;;;3.98;74.91;96488.88;103947;1352;22564;-60
2021/12/01 10:55:42;;;;;;;21.00;18.60;;;;;;;3.97;73.77;96492.25;103970;1352;22313;-61
2021/12/01 10:58:10;;;;;;;34.20;29.20;;;;;;;3.95;73.51;96483.37;103925;1354;22298;-61
2021/12/01 11:00:43;;;;;;;29.50;26.30;;;;;;;3.90;73.77;96483.77;103966;1354;22418;-61
2021/12/01 11:03:27;;;;;;;26.40;22.80;;;;;;;3.83;73.58;96479.46;103936;1352;22439;-61
2021/12/01 11:06:20;;;;;;;38.40;31.40;;;;;;;3.70;73.69;96478.15;103921;1354;22589;-61
2021/12/01 11:08:55;;;;;;;16.10;10.60;;;;;;;3.65;74.50;96469.86;103964;1353;22450;-60
2021/12/01 11:11:45;;;;;;;23.90;20.90;;;;;;;3.69;74.58;96467.63;103970;1352;23114;-59
2021/12/01 11:14:42;;;;;;;19.00;14.30;;;;;;;3.67;74.87;96459.66;103708;1353;23324;-61
2021/12/01 11:17:13;;;;;;;26.10;21.80;;;;;;;3.65;75.58;96448.02;103976;1352;23045;-60
2021/12/01 11:19:41;;;;;;;22.40;15.40;;;;;;;3.66;75.34;96445.19;103966;1352;22535;-60
2021/12/01 11:22:27;;;;;;;39.00;26.10;;;;;;;3.68;75.32;96442.38;103936;1352;22567;-60
2021/12/01 11:25:22;;;;;;;51.60;35.50;;;;;;;3.70;75.78;96435.68;103985;1352;22617;-61
2021/12/01 11:27:51;;;;;;;32.90;25.60;;;;;;;3.73;76.17;96426.96;103919;1354;22347;-61
2021/12/01 11:30:19;;;;;;;45.20;40.40;;;;;;;3.78;76.21;96419.19;103974;1353;22351;-61
2021/12/01 11:33:11;;;;;;;36.20;32.50;;;;;;;3.79;76.30;96415.19;103967;1352;22296;-61
2021/12/01 11:35:41;;;;;;;36.80;32.90;;;;;;;3.78;76.20;96409.78;103739;1352;22399;-61
2021/12/01 11:38:11;;;;;;;38.80;34.80;;;;;;;3.78;76.53;96401.83;103955;1352;22420;-61
2021/12/01 11:40:41;;;;;;;42.70;38.30;;;;;;;3.83;76.57;96401.69;103972;1352;22995;-61
2021/12/01 11:43:11;;;;;;;74.60;66.60;;;;;;;3.85;76.32;96396.77;103973;1352;22325;-61
2021/12/01 11:45:42;;;;;;;38.90;34.80;;;;;;;3.84;76.52;96393.64;103979;1352;22463;-61